Time;durP1;ratioP1;P1;durP2;ratioP2;P2;SDS_P1;SDS_P2;PMS_P1;PMS_P2;Temp;Humidity;BMP_temperature;BMP_pressure;BME280_temperature;BME280_humidity;BME280_pressure;Samples;Min_cycle;Max_cycle;Signal;HPM_P1;HPM_P2
2022/01/15 00:00:20;;;;;;;0.30;0.30;;;21.60;44.80;;;;;;5051774;28;43824;-63
2022/01/15 00:02:48;;;;;;;0.30;0.30;;;21.60;44.70;;;;;;5043429;28;43606;-62
2022/01/15 00:05:15;;;;;;;0.25;0.25;;;21.60;44.80;;;;;;5088018;27;43538;-63
2022/01/15 00:07:47;;;;;;;0.25;0.25;;;21.50;44.80;;;;;;5041765;28;43384;-63
2022/01/15 00:10:17;;;;;;;0.20;0.20;;;21.50;44.80;;;;;;5043697;28;44195;-63
2022/01/15 00:12:44;;;;;;;0.30;0.30;;;21.50;44.80;;;;;;5077435;27;43561;-63
2022/01/15 00:15:20;;;;;;;0.20;0.20;;;21.50;44.80;;;;;;5045579;28;43614;-63
2022/01/15 00:17:52;;;;;;;0.85;0.20;;;21.50;44.80;;;;;;5040464;28;43527;-63
2022/01/15 00:20:20;;;;;;;0.20;0.20;;;21.50;44.80;;;;;;5076425;27;44970;-63
2022/01/15 00:22:48;;;;;;;0.30;0.30;;;21.50;44.80;;;;;;5046139;28;43640;-63
2022/01/15 00:25:19;;;;;;;0.28;0.28;;;21.50;44.80;;;;;;5046616;28;43427;-64
2022/01/15 00:27:47;;;;;;;0.20;0.20;;;21.50;44.80;;;;;;5045049;28;43455;-64
2022/01/15 00:30:18;;;;;;;0.20;0.20;;;21.50;44.80;;;;;;5047316;28;44042;-63
2022/01/15 00:32:46;;;;;;;0.20;0.20;;;21.40;44.80;;;;;;5048201;28;43685;-63
2022/01/15 00:35:16;;;;;;;0.30;0.20;;;21.40;44.80;;;;;;5047830;28;43626;-62
2022/01/15 00:37:43;;;;;;;0.20;0.20;;;21.40;44.80;;;;;;5049158;28;43469;-63
2022/01/15 00:40:19;;;;;;;0.20;0.20;;;21.40;44.80;;;;;;5050164;28;44061;-63
2022/01/15 00:42:46;;;;;;;0.30;0.30;;;21.40;44.90;;;;;;5045869;28;43609;-63
2022/01/15 00:45:21;;;;;;;0.28;0.28;;;21.40;44.80;;;;;;5046302;28;43466;-63
2022/01/15 00:47:52;;;;;;;0.22;0.22;;;21.40;44.90;;;;;;5047588;28;43608;-62
2022/01/15 00:50:21;;;;;;;0.20;0.20;;;21.40;44.90;;;;;;5050271;28;45024;-63
2022/01/15 00:52:49;;;;;;;0.15;0.15;;;21.30;44.80;;;;;;5048620;28;43742;-63
2022/01/15 00:55:20;;;;;;;0.20;0.20;;;21.30;44.90;;;;;;5048231;28;43962;-63
2022/01/15 00:57:47;;;;;;;0.10;0.10;;;21.30;44.90;;;;;;5049050;28;43511;-63
2022/01/15 01:00:20;;;;;;;0.20;0.20;;;21.30;44.90;;;;;;5051771;28;43937;-63
2022/01/15 01:02:47;;;;;;;0.20;0.20;;;21.30;44.90;;;;;;5050914;28;44803;-63
2022/01/15 01:05:16;;;;;;;0.10;0.10;;;21.30;44.90;;;;;;5051235;28;43455;-63
2022/01/15 01:07:44;;;;;;;0.15;0.15;;;21.30;44.90;;;;;;5050424;28;43432;-63
2022/01/15 01:13:15;;;;;;;0.30;0.30;;;21.30;44.90;;;;;;5045241;28;43967;-64
2022/01/15 01:24:01;;;;;;;0.30;0.30;;;21.20;44.90;;;;;;5048111;28;44138;-63
2022/01/15 01:26:55;;;;;;;0.68;0.15;;;21.20;44.90;;;;;;5034196;28;44043;-63
2022/01/15 01:34:55;;;;;;;0.20;0.20;;;21.20;45.60;;;;;;5087047;27;43470;-64
2022/01/15 01:37:37;;;;;;;0.10;0.10;;;21.20;44.90;;;;;;5051699;28;43529;-63
2022/01/15 01:42:51;;;;;;;0.10;0.10;;;21.10;44.90;;;;;;5045932;28;43927;-63
2022/01/15 01:45:19;;;;;;;0.20;0.20;;;21.10;44.90;;;;;;5048365;28;43549;-63
2022/01/15 01:47:46;;;;;;;0.10;0.10;;;21.10;44.90;;;;;;5047516;28;43431;-63
2022/01/15 01:50:22;;;;;;;0.20;0.20;;;21.10;44.90;;;;;;5044101;28;43444;-65
2022/01/15 01:52:52;;;;;;;0.30;0.30;;;21.10;44.90;;;;;;5045438;28;43811;-63
2022/01/15 01:55:22;;;;;;;0.10;0.10;;;21.10;44.90;;;;;;5041892;28;43465;-63
2022/01/15 01:57:52;;;;;;;0.10;0.10;;;21.10;44.90;;;;;;5042449;28;43487;-63
2022/01/15 02:00:21;;;;;;;0.20;0.20;;;21.10;44.90;;;;;;5042348;28;43540;-64
2022/01/15 02:02:52;;;;;;;0.10;0.10;;;21.10;45.00;;;;;;5042195;28;44863;-63
2022/01/15 02:05:20;;;;;;;0.10;0.10;;;21.10;44.90;;;;;;5043353;28;43578;-63
2022/01/15 02:07:48;;;;;;;0.32;0.10;;;21.00;45.50;;;;;;5043913;28;43561;-63
2022/01/15 02:10:19;;;;;;;0.20;0.20;;;21.00;44.90;;;;;;5044075;28;43462;-63
2022/01/15 02:12:48;;;;;;;0.20;0.20;;;21.00;44.90;;;;;;5043312;28;44050;-63
2022/01/15 02:15:19;;;;;;;0.10;0.10;;;21.00;44.90;;;;;;5043961;28;43694;-63
2022/01/15 02:17:48;;;;;;;0.20;0.20;;;21.00;44.90;;;;;;5045533;28;43486;-63
2022/01/15 02:25:46;;;;;;;0.20;0.20;;;21.00;44.90;;;;;;5046633;28;44117;-64
2022/01/15 02:28:15;;;;;;;0.10;0.10;;;20.90;44.90;;;;;;5047755;28;43544;-63
2022/01/15 02:30:42;;;;;;;0.10;0.10;;;21.00;44.90;;;;;;5047863;28;43534;-63
2022/01/15 02:33:10;;;;;;;0.28;0.20;;;20.90;44.90;;;;;;5047982;28;43784;-63
2022/01/15 02:35:37;;;;;;;0.47;0.10;;;20.90;44.90;;;;;;5047844;28;43543;-63
2022/01/15 02:38:07;;;;;;;0.28;0.28;;;20.90;45.00;;;;;;5045155;28;43458;-63
2022/01/15 02:40:36;;;;;;;0.15;0.15;;;20.90;44.90;;;;;;5046452;28;43505;-64
2022/01/15 02:43:05;;;;;;;0.20;0.20;;;20.90;45.00;;;;;;5062460;27;44249;-64
2022/01/15 02:45:34;;;;;;;0.10;0.10;;;20.90;44.90;;;;;;5044939;28;43486;-63
2022/01/15 02:48:03;;;;;;;0.52;0.20;;;20.90;44.90;;;;;;5045099;28;43709;-63
2022/01/15 02:50:30;;;;;;;0.10;0.10;;;20.90;44.90;;;;;;5047208;28;43546;-63
2022/01/15 02:53:03;;;;;;;0.13;0.13;;;20.90;44.90;;;;;;5048283;28;44669;-63
2022/01/15 02:55:30;;;;;;;0.20;0.20;;;20.90;45.00;;;;;;5049128;28;43447;-63
2022/01/15 02:57:58;;;;;;;0.10;0.10;;;20.90;45.00;;;;;;5051171;28;43500;-63
2022/01/15 03:00:27;;;;;;;0.17;0.17;;;20.80;45.00;;;;;;5053212;28;43411;-63
2022/01/15 03:02:54;;;;;;;0.20;0.10;;;20.80;45.00;;;;;;5050474;28;44141;-63
2022/01/15 03:05:22;;;;;;;0.10;0.10;;;20.80;45.00;;;;;;5047160;28;43610;-64
2022/01/15 03:07:49;;;;;;;0.20;0.20;;;20.80;45.00;;;;;;5049417;28;43414;-64
2022/01/15 03:10:17;;;;;;;0.20;0.20;;;20.80;45.00;;;;;;5048260;28;43474;-63
2022/01/15 03:12:46;;;;;;;0.20;0.20;;;20.80;45.00;;;;;;5042460;28;45070;-63
2022/01/15 03:15:19;;;;;;;0.10;0.10;;;20.80;45.10;;;;;;5048329;28;43543;-63
2022/01/15 03:17:48;;;;;;;0.10;0.10;;;20.80;45.10;;;;;;5049904;28;43513;-63
2022/01/15 03:20:18;;;;;;;0.13;0.13;;;20.70;45.00;;;;;;5042534;28;43455;-64
2022/01/15 03:22:46;;;;;;;0.10;0.10;;;20.70;45.10;;;;;;5043308;28;44973;-63
2022/01/15 03:25:14;;;;;;;0.10;0.10;;;20.70;45.00;;;;;;5068091;28;43384;-63
2022/01/15 03:27:41;;;;;;;0.10;0.10;;;20.70;45.10;;;;;;5051334;28;43472;-63
2022/01/15 03:30:11;;;;;;;0.10;0.10;;;20.70;45.10;;;;;;5053244;28;43560;-65
2022/01/15 03:32:43;;;;;;;0.10;0.10;;;20.70;45.10;;;;;;5048612;28;44691;-63
2022/01/15 03:35:12;;;;;;;0.10;0.10;;;20.70;45.10;;;;;;5041108;28;44080;-63
2022/01/15 03:37:40;;;;;;;0.10;0.10;;;20.70;45.10;;;;;;5056950;28;43480;-63
2022/01/15 03:40:10;;;;;;;0.10;0.10;;;20.70;45.10;;;;;;5040264;28;43545;-63
2022/01/15 03:42:37;;;;;;;0.10;0.10;;;20.70;45.10;;;;;;5041487;28;43605;-64
2022/01/15 03:45:07;;;;;;;0.13;0.13;;;20.70;45.10;;;;;;5041967;28;43500;-63
2022/01/15 03:47:34;;;;;;;0.20;0.20;;;20.60;45.10;;;;;;5045097;28;43438;-63
2022/01/15 03:50:03;;;;;;;0.10;0.10;;;20.60;45.10;;;;;;5043069;28;43494;-63
2022/01/15 03:52:30;;;;;;;0.20;0.20;;;20.60;45.10;;;;;;5042758;28;43816;-63
2022/01/15 03:54:58;;;;;;;0.10;0.10;;;20.60;45.10;;;;;;5043829;28;43562;-63
2022/01/15 03:57:25;;;;;;;0.10;0.10;;;20.60;45.10;;;;;;5044234;28;43486;-63
2022/01/15 03:59:53;;;;;;;0.10;0.10;;;20.60;45.10;;;;;;5045621;28;43486;-63
2022/01/15 04:02:20;;;;;;;0.10;0.10;;;20.60;45.10;;;;;;5044803;28;44665;-63
2022/01/15 04:04:48;;;;;;;0.13;0.13;;;20.60;45.10;;;;;;5046635;28;43533;-63
2022/01/15 04:07:15;;;;;;;0.10;0.10;;;20.60;45.20;;;;;;5045828;28;43474;-63
2022/01/15 04:09:43;;;;;;;0.10;0.10;;;20.50;45.10;;;;;;5080436;27;43551;-64
2022/01/15 04:12:10;;;;;;;0.10;0.10;;;20.50;45.10;;;;;;5047705;28;44671;-64
2022/01/15 04:14:38;;;;;;;0.47;0.20;;;20.60;45.20;;;;;;5047882;28;43460;-64
2022/01/15 04:17:07;;;;;;;0.05;0.05;;;20.60;45.20;;;;;;5046332;28;43516;-63
2022/01/15 04:19:36;;;;;;;0.10;0.10;;;20.50;45.60;;;;;;5048737;28;43545;-63
2022/01/15 04:22:03;;;;;;;0.10;0.10;;;20.50;45.20;;;;;;5045743;28;44053;-63
2022/01/15 04:24:32;;;;;;;0.13;0.13;;;20.50;45.20;;;;;;5049266;28;43707;-63
2022/01/15 04:26:59;;;;;;;0.10;0.10;;;20.50;45.10;;;;;;5053295;28;43426;-63
2022/01/15 04:29:27;;;;;;;0.10;0.10;;;20.50;45.20;;;;;;5052265;28;43478;-63
2022/01/15 04:31:55;;;;;;;0.10;0.10;;;20.50;45.20;;;;;;5051094;28;45093;-64
2022/01/15 04:34:28;;;;;;;0.10;0.10;;;20.50;45.20;;;;;;5049110;28;43482;-63
2022/01/15 04:37:08;;;;;;;0.20;0.20;;;20.50;45.20;;;;;;5047187;28;43819;-64
2022/01/15 04:39:35;;;;;;;0.10;0.10;;;20.50;45.20;;;;;;5048951;28;43462;-63
2022/01/15 04:42:03;;;;;;;0.20;0.20;;;20.50;45.20;;;;;;5048289;28;44011;-63
2022/01/15 04:44:31;;;;;;;0.10;0.10;;;20.40;45.10;;;;;;5051990;28;44709;-63
2022/01/15 04:46:59;;;;;;;0.20;0.20;;;20.40;45.20;;;;;;5048212;28;43546;-63
2022/01/15 04:49:26;;;;;;;0.20;0.20;;;20.40;45.20;;;;;;5055154;28;43491;-63
2022/01/15 04:51:54;;;;;;;0.10;0.10;;;20.40;45.20;;;;;;5049548;28;44169;-63
2022/01/15 04:54:21;;;;;;;0.20;0.20;;;20.40;45.20;;;;;;5055481;28;43545;-64
2022/01/15 04:56:49;;;;;;;0.10;0.10;;;20.40;45.20;;;;;;5055782;28;43459;-63
2022/01/15 04:59:16;;;;;;;0.10;0.10;;;20.40;45.20;;;;;;5053679;28;43526;-63
2022/01/15 05:01:44;;;;;;;0.10;0.10;;;20.40;45.30;;;;;;5054631;28;43599;-63
2022/01/15 05:04:11;;;;;;;0.10;0.10;;;20.40;45.20;;;;;;5065369;28;43609;-63
2022/01/15 05:06:39;;;;;;;0.15;0.15;;;20.40;45.20;;;;;;5047359;28;43960;-63
2022/01/15 05:09:07;;;;;;;0.15;0.10;;;20.30;45.20;;;;;;5046453;28;43514;-63
2022/01/15 05:11:56;;;;;;;0.10;0.10;;;20.30;45.20;;;;;;5048877;28;43792;-63
2022/01/15 05:14:23;;;;;;;0.17;0.17;;;20.30;45.20;;;;;;5048078;28;43496;-63
2022/01/15 05:16:51;;;;;;;0.10;0.10;;;20.30;45.20;;;;;;5050172;28;43483;-63
2022/01/15 05:19:18;;;;;;;0.65;0.10;;;20.30;45.90;;;;;;5083731;27;43617;-63
2022/01/15 05:21:46;;;;;;;0.10;0.10;;;20.30;45.30;;;;;;5041907;28;43549;-63
2022/01/15 05:24:14;;;;;;;0.10;0.10;;;20.30;45.30;;;;;;5041452;28;43497;-63
2022/01/15 05:26:41;;;;;;;0.15;0.15;;;20.30;45.30;;;;;;5043412;28;43529;-63
2022/01/15 05:29:09;;;;;;;0.10;0.10;;;20.30;45.30;;;;;;5043251;28;43492;-64
2022/01/15 05:31:36;;;;;;;0.10;0.10;;;20.30;45.30;;;;;;5042095;28;43932;-64
2022/01/15 05:34:04;;;;;;;0.20;0.20;;;20.30;45.30;;;;;;5043953;28;43470;-63
2022/01/15 05:36:31;;;;;;;0.28;0.28;;;20.30;45.30;;;;;;5043663;28;43455;-63
2022/01/15 05:38:58;;;;;;;0.28;0.28;;;20.20;45.30;;;;;;5043850;28;43468;-63
2022/01/15 05:41:26;;;;;;;0.30;0.30;;;20.30;45.30;;;;;;5044643;28;43792;-63
2022/01/15 05:43:53;;;;;;;0.30;0.25;;;20.30;45.30;;;;;;5044948;28;43551;-64
2022/01/15 05:46:21;;;;;;;0.10;0.10;;;20.30;45.30;;;;;;5045663;28;43506;-63
2022/01/15 05:48:48;;;;;;;0.20;0.20;;;20.20;45.20;;;;;;5045375;28;44288;-63
2022/01/15 05:51:16;;;;;;;0.10;0.10;;;20.20;45.20;;;;;;5044450;28;43981;-63
2022/01/15 05:53:43;;;;;;;0.30;0.30;;;20.20;45.30;;;;;;5046851;28;43479;-63
2022/01/15 05:56:11;;;;;;;0.20;0.20;;;20.20;45.30;;;;;;5047497;28;43515;-64
2022/01/15 05:58:38;;;;;;;0.22;0.22;;;20.20;45.30;;;;;;5046935;28;43447;-63
2022/01/15 06:01:06;;;;;;;0.10;0.10;;;20.20;45.30;;;;;;5045521;28;43624;-63
2022/01/15 06:03:33;;;;;;;0.10;0.10;;;20.20;45.30;;;;;;5047259;28;44307;-63
2022/01/15 06:06:02;;;;;;;0.35;0.35;;;20.20;45.30;;;;;;5047995;28;43577;-63
2022/01/15 06:08:29;;;;;;;0.13;0.13;;;20.20;45.40;;;;;;5043908;28;43511;-64
2022/01/15 06:10:57;;;;;;;0.10;0.10;;;20.20;45.40;;;;;;5044956;28;43812;-64
2022/01/15 06:13:24;;;;;;;0.20;0.20;;;20.10;45.40;;;;;;5044881;28;43535;-64
2022/01/15 06:15:52;;;;;;;0.20;0.20;;;20.10;45.40;;;;;;5047481;28;43450;-64
2022/01/15 06:18:19;;;;;;;0.17;0.17;;;20.10;45.50;;;;;;5048229;28;43535;-63
2022/01/15 06:20:47;;;;;;;0.10;0.10;;;20.10;45.40;;;;;;5049869;28;44662;-64
2022/01/15 06:23:14;;;;;;;0.10;0.10;;;20.10;45.40;;;;;;5046719;28;43435;-63
2022/01/15 06:25:42;;;;;;;0.20;0.20;;;20.10;45.40;;;;;;5047950;28;43417;-64
2022/01/15 06:28:09;;;;;;;0.20;0.20;;;20.10;45.50;;;;;;5051190;28;43511;-63
2022/01/15 06:30:37;;;;;;;0.20;0.20;;;20.10;45.40;;;;;;5048586;28;43800;-64
2022/01/15 06:33:07;;;;;;;0.20;0.20;;;20.10;45.40;;;;;;5047841;28;43419;-63
2022/01/15 06:35:35;;;;;;;0.17;0.17;;;20.10;45.40;;;;;;5049941;28;43415;-63
2022/01/15 06:38:02;;;;;;;0.40;0.15;;;20.10;45.40;;;;;;5044667;28;43462;-64
2022/01/15 06:40:31;;;;;;;0.10;0.10;;;20.10;45.40;;;;;;5077835;27;43955;-63
2022/01/15 06:43:01;;;;;;;0.00;0.00;;;20.20;45.40;;;;;;5046951;28;43503;-64
2022/01/15 06:45:30;;;;;;;0.10;0.10;;;20.20;45.40;;;;;;5053349;28;43512;-64
2022/01/15 06:47:57;;;;;;;0.05;0.05;;;20.20;45.30;;;;;;5045671;28;43499;-64
2022/01/15 06:50:27;;;;;;;0.10;0.10;;;20.20;45.30;;;;;;5047698;28;44773;-63
2022/01/15 06:52:55;;;;;;;1.67;0.17;;;20.20;45.30;;;;;;5052820;28;43437;-64
2022/01/15 06:55:23;;;;;;;0.10;0.10;;;20.20;45.50;;;;;;5054708;28;43796;-63
2022/01/15 06:57:53;;;;;;;0.15;0.15;;;20.20;45.30;;;;;;5050376;28;43567;-64
2022/01/15 07:00:21;;;;;;;0.10;0.10;;;20.20;45.40;;;;;;5049551;28;43564;-64
2022/01/15 07:02:48;;;;;;;0.10;0.10;;;20.20;45.40;;;;;;5048268;28;43494;-64
2022/01/15 07:05:16;;;;;;;0.10;0.10;;;20.20;45.40;;;;;;5048090;28;43466;-64
2022/01/15 07:07:45;;;;;;;0.10;0.10;;;20.20;45.50;;;;;;5074076;27;43439;-63
2022/01/15 07:10:14;;;;;;;0.20;0.20;;;20.20;45.40;;;;;;5039001;28;43901;-63
2022/01/15 07:12:42;;;;;;;0.13;0.13;;;20.20;45.30;;;;;;5046512;28;43465;-63
2022/01/15 07:15:11;;;;;;;0.20;0.15;;;20.20;45.30;;;;;;5041241;28;43514;-64
2022/01/15 07:17:43;;;;;;;0.40;0.20;;;20.20;45.30;;;;;;5041939;28;43483;-64
2022/01/15 07:20:13;;;;;;;0.47;0.20;;;20.20;45.30;;;;;;5041271;28;43829;-65
2022/01/15 07:22:41;;;;;;;0.10;0.10;;;20.20;45.30;;;;;;5057477;28;43444;-64
2022/01/15 07:25:10;;;;;;;0.20;0.20;;;20.20;45.30;;;;;;5038810;28;43581;-63
2022/01/15 07:27:38;;;;;;;0.30;0.30;;;20.20;45.30;;;;;;5041457;28;43475;-64
2022/01/15 07:30:08;;;;;;;0.20;0.20;;;20.20;45.30;;;;;;5044482;28;44130;-63
2022/01/15 07:32:35;;;;;;;0.43;0.43;;;20.30;45.30;;;;;;5044008;28;43812;-63
2022/01/15 07:35:04;;;;;;;0.47;0.20;;;20.30;45.40;;;;;;5043061;28;43762;-64
2022/01/15 07:37:31;;;;;;;0.30;0.30;;;20.30;45.30;;;;;;5039729;28;43537;-64
2022/01/15 07:40:00;;;;;;;0.20;0.20;;;20.30;45.40;;;;;;5045770;28;43571;-63
2022/01/15 07:42:36;;;;;;;0.30;0.20;;;20.30;45.30;;;;;;5049491;28;43614;-63
2022/01/15 07:45:06;;;;;;;0.20;0.20;;;20.40;45.40;;;;;;5048745;28;43553;-63
2022/01/15 07:47:34;;;;;;;0.77;0.47;;;20.40;45.40;;;;;;5049418;28;43515;-64
2022/01/15 07:50:06;;;;;;;0.30;0.30;;;20.40;45.40;;;;;;5049747;28;44668;-63
2022/01/15 07:52:34;;;;;;;0.13;0.13;;;20.40;45.40;;;;;;5049855;28;43701;-63
2022/01/15 07:55:03;;;;;;;0.30;0.30;;;20.50;45.40;;;;;;5052645;28;43426;-64
2022/01/15 07:57:51;;;;;;;0.25;0.25;;;20.50;45.40;;;;;;5049121;28;43698;-63
2022/01/15 08:00:19;;;;;;;0.40;0.40;;;20.50;45.40;;;;;;5051021;28;43789;-63
2022/01/15 08:02:47;;;;;;;0.20;0.20;;;20.50;45.40;;;;;;5048936;28;43523;-64
2022/01/15 08:05:14;;;;;;;0.20;0.20;;;20.50;45.40;;;;;;5046483;28;43510;-63
2022/01/15 08:07:42;;;;;;;0.77;0.30;;;20.50;45.40;;;;;;5047685;28;43444;-64
2022/01/15 08:10:09;;;;;;;0.30;0.30;;;20.50;45.40;;;;;;5047298;28;44040;-63
2022/01/15 08:12:45;;;;;;;0.40;0.40;;;20.50;45.30;;;;;;5043835;28;43444;-64
2022/01/15 08:15:15;;;;;;;0.32;0.32;;;20.60;45.40;;;;;;5045430;28;43517;-63
2022/01/15 08:17:43;;;;;;;0.50;0.20;;;20.60;45.40;;;;;;5047637;28;43507;-63
2022/01/15 08:20:11;;;;;;;0.20;0.20;;;20.60;45.40;;;;;;5049693;28;43814;-63
2022/01/15 08:22:40;;;;;;;0.40;0.40;;;20.60;45.40;;;;;;5045948;28;43439;-64
2022/01/15 08:25:09;;;;;;;0.70;0.35;;;20.70;45.40;;;;;;5045431;28;44017;-63
2022/01/15 08:27:36;;;;;;;0.30;0.30;;;20.70;45.40;;;;;;5045894;28;43471;-63
2022/01/15 08:30:06;;;;;;;0.20;0.20;;;20.70;45.40;;;;;;5046617;28;43883;-63
2022/01/15 08:32:33;;;;;;;0.45;0.40;;;20.70;45.40;;;;;;5047895;28;43444;-63
2022/01/15 08:35:02;;;;;;;0.70;0.30;;;20.70;45.30;;;;;;5048053;28;43435;-64
2022/01/15 08:37:29;;;;;;;0.30;0.30;;;20.80;45.40;;;;;;5047174;28;43522;-63
2022/01/15 08:39:57;;;;;;;0.40;0.40;;;20.80;45.40;;;;;;5075525;27;44667;-64
2022/01/15 08:42:24;;;;;;;0.20;0.20;;;20.80;45.30;;;;;;5046594;28;43472;-63
2022/01/15 08:44:52;;;;;;;0.30;0.30;;;20.80;45.30;;;;;;5029602;28;43409;-63
2022/01/15 08:47:20;;;;;;;0.40;0.40;;;20.80;45.20;;;;;;5047276;28;43598;-63
2022/01/15 08:49:48;;;;;;;0.28;0.28;;;20.80;45.20;;;;;;5046804;28;43787;-63
2022/01/15 08:52:15;;;;;;;0.32;0.32;;;20.80;45.20;;;;;;5047123;28;43530;-64
2022/01/15 08:54:43;;;;;;;0.30;0.30;;;20.90;45.20;;;;;;5048259;28;43462;-63
2022/01/15 08:57:10;;;;;;;0.40;0.40;;;20.80;45.20;;;;;;5044911;28;43460;-64
2022/01/15 08:59:38;;;;;;;0.43;0.40;;;20.90;45.20;;;;;;5046846;28;44703;-63
2022/01/15 09:02:06;;;;;;;0.40;0.30;;;20.90;45.20;;;;;;5049095;28;43470;-63
2022/01/15 09:04:34;;;;;;;1.15;0.45;;;20.90;45.20;;;;;;5048258;28;43494;-63
2022/01/15 09:07:02;;;;;;;0.40;0.30;;;20.90;45.20;;;;;;5044300;28;43513;-63
2022/01/15 09:09:29;;;;;;;0.30;0.30;;;20.90;45.20;;;;;;5049808;28;43979;-63
2022/01/15 09:11:57;;;;;;;0.30;0.30;;;20.90;45.10;;;;;;5049441;28;43974;-64
2022/01/15 09:14:25;;;;;;;1.10;0.30;;;21.00;45.10;;;;;;5047888;28;43459;-63
2022/01/15 09:16:52;;;;;;;0.38;0.38;;;21.00;45.20;;;;;;5042738;28;43475;-63
2022/01/15 09:19:20;;;;;;;0.50;0.30;;;21.00;45.20;;;;;;5046199;28;43977;-63
2022/01/15 09:21:47;;;;;;;0.40;0.40;;;21.00;45.10;;;;;;5047288;28;43429;-63
2022/01/15 09:24:15;;;;;;;0.38;0.38;;;21.00;45.10;;;;;;5045539;28;44165;-64
2022/01/15 09:32:08;;;;;;;0.15;0.15;;;21.10;45.10;;;;;;5046961;28;43486;-63
2022/01/15 09:34:37;;;;;;;0.60;0.30;;;21.10;45.10;;;;;;5047182;28;43481;-63
2022/01/15 09:37:07;;;;;;;0.20;0.20;;;21.10;45.10;;;;;;5045768;28;43511;-63
2022/01/15 09:39:34;;;;;;;1.55;0.50;;;21.10;45.10;;;;;;5045649;28;44649;-64
2022/01/15 09:42:03;;;;;;;1.90;0.60;;;21.10;45.10;;;;;;5049062;28;43599;-63
2022/01/15 09:44:33;;;;;;;2.45;0.60;;;21.10;45.30;;;;;;5050005;28;43428;-63
2022/01/15 09:47:03;;;;;;;1.70;0.70;;;21.10;45.30;;;;;;5049402;28;43610;-63
2022/01/15 09:49:31;;;;;;;1.88;0.70;;;21.20;45.40;;;;;;5049872;28;43800;-63
2022/01/15 09:52:02;;;;;;;6.90;1.23;;;21.20;45.40;;;;;;5047527;28;43529;-64
2022/01/15 09:54:30;;;;;;;0.73;0.57;;;21.20;45.30;;;;;;5046736;28;43438;-63
2022/01/15 09:56:57;;;;;;;1.08;0.70;;;21.20;45.40;;;;;;5044585;28;43503;-61
2022/01/15 09:59:25;;;;;;;2.00;0.50;;;21.20;45.30;;;;;;5047914;28;44663;-62
2022/01/15 10:01:52;;;;;;;2.30;0.88;;;21.30;45.40;;;;;;5047800;28;43391;-63
2022/01/15 10:04:20;;;;;;;2.40;0.50;;;21.30;45.30;;;;;;5047378;28;43488;-62
2022/01/15 10:07:25;;;;;;;1.00;0.60;;;21.30;45.30;;;;;;5048227;28;43464;-63
2022/01/15 10:09:53;;;;;;;1.20;0.60;;;21.30;45.20;;;;;;5012092;28;43791;-63
2022/01/15 10:12:28;;;;;;;1.50;0.80;;;21.40;45.30;;;;;;5047237;28;43470;-62
2022/01/15 10:15:16;;;;;;;2.17;0.68;;;21.40;45.20;;;;;;5047880;28;43513;-63
2022/01/15 10:17:45;;;;;;;0.50;0.50;;;21.40;45.20;;;;;;5049590;28;43542;-63
2022/01/15 10:20:13;;;;;;;0.80;0.45;;;21.40;45.20;;;;;;5046338;28;44070;-63
2022/01/15 10:22:43;;;;;;;0.50;0.50;;;21.40;45.20;;;;;;5046842;28;43519;-64
2022/01/15 10:25:18;;;;;;;2.72;0.65;;;21.40;45.20;;;;;;5043289;28;43495;-64
2022/01/15 10:27:50;;;;;;;1.35;0.38;;;21.40;45.10;;;;;;5044752;28;43533;-63
2022/01/15 10:30:24;;;;;;;0.95;0.40;;;21.40;45.70;;;;;;5047162;28;43830;-63
2022/01/15 10:33:01;;;;;;;0.60;0.43;;;21.50;45.10;;;;;;5048309;28;43518;-63
2022/01/15 10:35:37;;;;;;;0.43;0.43;;;21.50;45.10;;;;;;5047374;28;43507;-63
2022/01/15 10:38:10;;;;;;;0.55;0.50;;;21.50;45.10;;;;;;5065749;28;43538;-63
2022/01/15 10:40:39;;;;;;;1.17;0.80;;;21.50;45.10;;;;;;5049722;28;43797;-63
2022/01/15 10:43:07;;;;;;;1.70;0.63;;;21.50;45.10;;;;;;5050245;28;44030;-64
2022/01/15 10:45:46;;;;;;;1.02;0.68;;;21.50;45.10;;;;;;5047651;28;43525;-63
2022/01/15 10:48:31;;;;;;;1.08;0.43;;;21.50;45.10;;;;;;5048077;28;43527;-64
2022/01/15 10:51:01;;;;;;;0.50;0.50;;;21.60;45.10;;;;;;5047355;28;43826;-64
2022/01/15 10:53:37;;;;;;;0.95;0.70;;;21.60;45.10;;;;;;5047245;28;43483;-64
2022/01/15 10:56:07;;;;;;;1.10;0.52;;;21.60;45.10;;;;;;5043752;28;43518;-64
2022/01/15 10:58:36;;;;;;;0.70;0.70;;;21.60;45.70;;;;;;5052144;28;43462;-63
2022/01/15 11:01:04;;;;;;;1.48;1.00;;;21.60;45.10;;;;;;5045131;28;43951;-63
2022/01/15 11:03:40;;;;;;;1.60;0.90;;;21.60;45.10;;;;;;5046757;28;43574;-63
2022/01/15 11:06:08;;;;;;;1.20;1.00;;;21.60;45.00;;;;;;5046289;28;44006;-64
2022/01/15 11:08:37;;;;;;;2.65;1.23;;;21.60;45.10;;;;;;5045893;28;43562;-63
2022/01/15 11:11:11;;;;;;;2.03;1.00;;;21.60;45.20;;;;;;5046370;28;46062;-64
2022/01/15 11:13:41;;;;;;;2.13;1.23;;;21.60;45.20;;;;;;5048744;28;44011;-63
2022/01/15 11:16:14;;;;;;;1.20;0.90;;;21.60;45.30;;;;;;5047026;28;43483;-64
2022/01/15 11:18:54;;;;;;;2.13;1.35;;;21.70;45.30;;;;;;5044601;28;43495;-63
2022/01/15 11:21:25;;;;;;;2.22;1.40;;;21.60;45.30;;;;;;5047911;28;43896;-63
2022/01/15 11:23:56;;;;;;;2.25;1.48;;;21.70;45.40;;;;;;5060272;28;43534;-63
2022/01/15 11:26:27;;;;;;;1.92;1.33;;;21.70;45.40;;;;;;5037255;28;43427;-63
2022/01/15 11:28:58;;;;;;;1.25;1.15;;;21.70;45.30;;;;;;5042736;28;43933;-63
2022/01/15 11:31:27;;;;;;;;;;;21.70;45.30;;;;;;5044950;28;43814;-63
2022/01/15 11:33:59;;;;;;;2.00;1.30;;;21.70;45.30;;;;;;5044913;28;43452;-63
2022/01/15 11:36:38;;;;;;;2.28;1.35;;;21.70;45.40;;;;;;5044426;28;43456;-63
2022/01/15 11:39:12;;;;;;;2.80;1.70;;;21.70;45.40;;;;;;5046077;28;43548;-63
2022/01/15 11:41:43;;;;;;;1.50;1.40;;;21.70;45.30;;;;;;5078854;27;44025;-63
2022/01/15 11:44:37;;;;;;;1.88;1.42;;;21.80;45.30;;;;;;5047336;28;43515;-63
2022/01/15 11:47:18;;;;;;;1.27;1.17;;;21.80;45.30;;;;;;5046451;28;43438;-64
2022/01/15 11:49:49;;;;;;;1.77;1.27;;;21.80;45.20;;;;;;5078943;27;43435;-62
2022/01/15 11:52:22;;;;;;;2.35;1.60;;;21.80;45.30;;;;;;5045785;28;43951;-63
2022/01/15 11:54:49;;;;;;;1.60;1.48;;;21.90;45.30;;;;;;5049458;28;43563;-64
2022/01/15 11:57:29;;;;;;;1.90;1.80;;;21.90;45.20;;;;;;5046055;28;43474;-64
2022/01/15 12:00:01;;;;;;;3.70;1.70;;;21.90;45.20;;;;;;5082683;27;43598;-63
2022/01/15 12:02:32;;;;;;;1.95;1.50;;;21.90;45.20;;;;;;5048128;28;45253;-62
2022/01/15 12:05:15;;;;;;;1.90;1.38;;;22.00;45.20;;;;;;5048649;28;43476;-63
2022/01/15 12:07:48;;;;;;;2.55;1.80;;;22.00;45.20;;;;;;5048094;28;43490;-63
2022/01/15 12:10:18;;;;;;;1.98;1.67;;;22.00;45.20;;;;;;5050117;28;43450;-63
2022/01/15 12:12:53;;;;;;;3.05;1.77;;;22.00;45.20;;;;;;5050707;28;43697;-63
2022/01/15 12:15:28;;;;;;;1.85;1.60;;;22.10;45.20;;;;;;5048829;28;44147;-63
2022/01/15 12:18:02;;;;;;;1.98;1.50;;;22.00;45.10;;;;;;5046416;28;43430;-63
2022/01/15 12:20:35;;;;;;;1.40;1.30;;;22.10;45.20;;;;;;5045164;28;43473;-63
2022/01/15 12:23:13;;;;;;;1.90;1.50;;;22.10;45.10;;;;;;5047360;28;44494;-63
2022/01/15 12:25:41;;;;;;;1.98;1.63;;;22.10;45.10;;;;;;5048917;28;43616;-62
2022/01/15 12:28:15;;;;;;;1.42;1.33;;;22.10;45.10;;;;;;5042762;28;43449;-63
2022/01/15 12:30:50;;;;;;;2.60;1.67;;;22.10;45.10;;;;;;5067814;28;43518;-63
2022/01/15 12:33:22;;;;;;;3.22;1.60;;;22.10;45.10;;;;;;5069475;28;43927;-63
2022/01/15 12:35:58;;;;;;;1.92;1.50;;;22.20;45.20;;;;;;5048563;28;43611;-63
2022/01/15 12:38:28;;;;;;;1.95;1.48;;;22.20;45.00;;;;;;5083972;27;44196;-63
2022/01/15 12:41:04;;;;;;;1.90;1.60;;;22.20;45.10;;;;;;5048782;28;43440;-63
2022/01/15 12:43:34;;;;;;;2.20;1.50;;;22.20;45.10;;;;;;5050307;28;44999;-63
2022/01/15 12:46:22;;;;;;;1.90;1.58;;;22.20;45.10;;;;;;5052912;28;43471;-63
2022/01/15 12:48:50;;;;;;;2.17;1.70;;;22.30;45.10;;;;;;5043744;28;43451;-63
2022/01/15 12:51:21;;;;;;;1.85;1.67;;;22.30;45.00;;;;;;5052607;28;43514;-62
2022/01/15 12:54:00;;;;;;;1.80;1.70;;;22.30;45.10;;;;;;5067476;28;44940;-63
2022/01/15 12:56:31;;;;;;;2.45;1.65;;;22.30;45.00;;;;;;5046064;28;43486;-63
2022/01/15 12:59:02;;;;;;;2.85;1.67;;;22.30;45.00;;;;;;5052003;28;43489;-63
2022/01/15 13:01:31;;;;;;;1.67;1.55;;;22.30;45.00;;;;;;5043739;28;43507;-63
2022/01/15 13:04:09;;;;;;;1.60;1.50;;;22.30;45.60;;;;;;5048627;28;43613;-64
2022/01/15 13:06:37;;;;;;;1.70;1.52;;;22.30;45.00;;;;;;5048019;28;43678;-64
2022/01/15 13:09:04;;;;;;;1.80;1.60;;;22.30;44.90;;;;;;5044888;28;43427;-64
2022/01/15 13:11:32;;;;;;;1.50;1.40;;;22.40;45.00;;;;;;5043426;28;43556;-64
2022/01/15 13:14:05;;;;;;;1.60;1.50;;;22.40;45.00;;;;;;5079058;27;44312;-62
2022/01/15 13:16:33;;;;;;;3.35;1.58;;;22.40;45.00;;;;;;5040983;28;43494;-63
2022/01/15 13:19:04;;;;;;;2.17;1.77;;;22.40;45.00;;;;;;5042794;28;43472;-63
2022/01/15 13:21:36;;;;;;;1.52;1.40;;;22.40;44.90;;;;;;5044201;28;43436;-63
2022/01/15 13:24:11;;;;;;;1.95;1.70;;;22.40;44.90;;;;;;5041857;28;44799;-62
2022/01/15 13:26:42;;;;;;;1.60;1.50;;;22.40;44.90;;;;;;5043309;28;43421;-64
2022/01/15 13:29:11;;;;;;;1.60;1.50;;;22.40;44.90;;;;;;5039313;28;43563;-63
2022/01/15 13:31:42;;;;;;;1.73;1.63;;;22.50;45.00;;;;;;5043810;28;44161;-63